sensor_id;sensor_type;location;lat;lon;timestamp;pressure;altitude;pressure_sealevel;temperature;humidity
14689;BME280;7432;48.728;9.154;2022-12-18T00:01:38;97582.94;;;-8.83;82.56
14689;BME280;7432;48.728;9.154;2022-12-18T00:04:07;97593.00;;;-8.91;82.37
14689;BME280;7432;48.728;9.154;2022-12-18T00:06:40;97597.13;;;-8.88;82.40
14689;BME280;7432;48.728;9.154;2022-12-18T00:09:08;97599.63;;;-8.90;82.32
14689;BME280;7432;48.728;9.154;2022-12-18T00:11:35;97590.44;;;-8.86;82.23
14689;BME280;7432;48.728;9.154;2022-12-18T00:14:01;97601.28;;;-8.89;82.49
14689;BME280;7432;48.728;9.154;2022-12-18T00:16:29;97601.25;;;-8.87;82.95
14689;BME280;7432;48.728;9.154;2022-12-18T00:18:58;97592.97;;;-8.88;83.33
14689;BME280;7432;48.728;9.154;2022-12-18T00:21:27;97602.84;;;-8.82;83.02
14689;BME280;7432;48.728;9.154;2022-12-18T00:23:54;97599.50;;;-8.78;82.74
14689;BME280;7432;48.728;9.154;2022-12-18T00:26:22;97600.38;;;-8.82;82.08
14689;BME280;7432;48.728;9.154;2022-12-18T00:28:49;97595.34;;;-8.77;82.06
14689;BME280;7432;48.728;9.154;2022-12-18T00:31:18;97589.66;;;-8.91;81.76
14689;BME280;7432;48.728;9.154;2022-12-18T00:33:45;97587.97;;;-8.89;81.97
14689;BME280;7432;48.728;9.154;2022-12-18T00:36:14;97588.81;;;-8.89;82.10
14689;BME280;7432;48.728;9.154;2022-12-18T00:38:42;97607.09;;;-8.90;82.98
14689;BME280;7432;48.728;9.154;2022-12-18T00:41:09;97608.84;;;-8.98;83.06
14689;BME280;7432;48.728;9.154;2022-12-18T00:43:36;97612.97;;;-8.95;82.99
14689;BME280;7432;48.728;9.154;2022-12-18T00:46:02;97608.03;;;-9.00;82.95
14689;BME280;7432;48.728;9.154;2022-12-18T00:48:28;97608.00;;;-8.95;83.20
14689;BME280;7432;48.728;9.154;2022-12-18T00:50:55;97607.16;;;-8.94;83.13
14689;BME280;7432;48.728;9.154;2022-12-18T00:53:21;97613.78;;;-8.92;83.28
14689;BME280;7432;48.728;9.154;2022-12-18T00:55:49;97603.09;;;-9.01;83.38
14689;BME280;7432;48.728;9.154;2022-12-18T00:58:16;97602.16;;;-8.93;83.80
14689;BME280;7432;48.728;9.154;2022-12-18T01:00:43;97602.25;;;-9.04;83.24
14689;BME280;7432;48.728;9.154;2022-12-18T01:03:12;97618.81;;;-8.98;84.21
14689;BME280;7432;48.728;9.154;2022-12-18T01:05:39;97615.56;;;-9.01;84.30
14689;BME280;7432;48.728;9.154;2022-12-18T01:08:06;97607.91;;;-8.86;83.93
14689;BME280;7432;48.728;9.154;2022-12-18T01:10:32;97607.88;;;-8.83;84.07
14689;BME280;7432;48.728;9.154;2022-12-18T01:13:00;97607.06;;;-8.87;83.61
14689;BME280;7432;48.728;9.154;2022-12-18T01:15:27;97605.56;;;-9.00;83.27
14689;BME280;7432;48.728;9.154;2022-12-18T01:17:53;97608.06;;;-9.01;82.87
14689;BME280;7432;48.728;9.154;2022-12-18T01:20:20;97596.50;;;-9.12;83.17
14689;BME280;7432;48.728;9.154;2022-12-18T01:22:46;97606.44;;;-9.06;83.95
14689;BME280;7432;48.728;9.154;2022-12-18T01:25:12;97605.59;;;-9.05;83.65
14689;BME280;7432;48.728;9.154;2022-12-18T01:27:39;97604.69;;;-8.97;83.45
14689;BME280;7432;48.728;9.154;2022-12-18T01:30:07;97618.75;;;-8.90;83.17
14689;BME280;7432;48.728;9.154;2022-12-18T01:32:34;97613.88;;;-8.99;83.25
14689;BME280;7432;48.728;9.154;2022-12-18T01:35:01;97610.50;;;-8.95;82.59
14689;BME280;7432;48.728;9.154;2022-12-18T01:37:27;97610.59;;;-9.06;81.85
14689;BME280;7432;48.728;9.154;2022-12-18T01:39:54;97612.47;;;-9.28;82.63
14689;BME280;7432;48.728;9.154;2022-12-18T01:42:21;97618.25;;;-9.26;82.25
14689;BME280;7432;48.728;9.154;2022-12-18T01:44:58;97621.69;;;-9.34;82.42
14689;BME280;7432;48.728;9.154;2022-12-18T01:47:28;97613.28;;;-9.27;82.65
14689;BME280;7432;48.728;9.154;2022-12-18T01:49:58;97623.25;;;-9.24;82.59
14689;BME280;7432;48.728;9.154;2022-12-18T01:52:28;97617.44;;;-9.26;82.02
14689;BME280;7432;48.728;9.154;2022-12-18T01:54:55;97619.09;;;-9.27;81.77
14689;BME280;7432;48.728;9.154;2022-12-18T01:57:23;97614.81;;;-9.11;81.11
14689;BME280;7432;48.728;9.154;2022-12-18T01:59:53;97612.31;;;-9.11;81.09
14689;BME280;7432;48.728;9.154;2022-12-18T02:02:20;97614.78;;;-9.10;80.89
14689;BME280;7432;48.728;9.154;2022-12-18T02:04:48;97612.34;;;-9.17;81.23
14689;BME280;7432;48.728;9.154;2022-12-18T02:07:20;97599.09;;;-9.19;82.00
14689;BME280;7432;48.728;9.154;2022-12-18T02:09:54;97609.78;;;-9.08;81.47
14689;BME280;7432;48.728;9.154;2022-12-18T02:12:26;97597.28;;;-9.02;81.77
14689;BME280;7432;48.728;9.154;2022-12-18T02:15:00;97612.19;;;-9.00;82.01
14689;BME280;7432;48.728;9.154;2022-12-18T02:17:35;97607.09;;;-8.90;81.68
14689;BME280;7432;48.728;9.154;2022-12-18T02:20:12;97618.75;;;-8.90;81.94
14689;BME280;7432;48.728;9.154;2022-12-18T02:22:46;97619.47;;;-8.78;81.87
14689;BME280;7432;48.728;9.154;2022-12-18T02:25:28;97615.28;;;-8.74;81.65
14689;BME280;7432;48.728;9.154;2022-12-18T02:27:59;97578.00;;;-8.89;81.84
14689;BME280;7432;48.728;9.154;2022-12-18T02:30:27;97608.53;;;-8.68;81.12
14689;BME280;7432;48.728;9.154;2022-12-18T02:32:57;97603.47;;;-8.63;81.30
14689;BME280;7432;48.728;9.154;2022-12-18T02:35:29;97621.94;;;-8.76;81.72
14689;BME280;7432;48.728;9.154;2022-12-18T02:37:57;97625.28;;;-8.77;81.53
14689;BME280;7432;48.728;9.154;2022-12-18T02:40:26;97630.38;;;-8.88;81.84
14689;BME280;7432;48.728;9.154;2022-12-18T02:42:53;97620.47;;;-8.95;81.97
14689;BME280;7432;48.728;9.154;2022-12-18T02:45:21;97630.34;;;-8.83;81.52
14689;BME280;7432;48.728;9.154;2022-12-18T02:47:49;97627.84;;;-8.85;81.62
14689;BME280;7432;48.728;9.154;2022-12-18T02:50:19;97632.03;;;-8.87;81.58
14689;BME280;7432;48.728;9.154;2022-12-18T02:52:56;97630.34;;;-8.86;81.44
14689;BME280;7432;48.728;9.154;2022-12-18T02:55:32;97622.84;;;-8.85;81.23
14689;BME280;7432;48.728;9.154;2022-12-18T02:58:07;97624.59;;;-8.91;81.18
14689;BME280;7432;48.728;9.154;2022-12-18T03:00:42;97627.13;;;-8.97;81.77
14689;BME280;7432;48.728;9.154;2022-12-18T03:03:15;97625.47;;;-8.98;82.12
14689;BME280;7432;48.728;9.154;2022-12-18T03:05:51;97617.19;;;-9.00;82.40
14689;BME280;7432;48.728;9.154;2022-12-18T03:08:22;97614.66;;;-8.96;82.13
14689;BME280;7432;48.728;9.154;2022-12-18T03:10:51;97607.94;;;-8.88;81.95
14689;BME280;7432;48.728;9.154;2022-12-18T03:13:24;97620.44;;;-8.92;81.52
14689;BME280;7432;48.728;9.154;2022-12-18T03:15:57;97629.66;;;-8.99;82.35
14689;BME280;7432;48.728;9.154;2022-12-18T03:18:26;97637.03;;;-8.90;81.82
14689;BME280;7432;48.728;9.154;2022-12-18T03:20:58;97638.69;;;-8.89;81.97
14689;BME280;7432;48.728;9.154;2022-12-18T03:23:29;97649.53;;;-8.91;81.74
14689;BME280;7432;48.728;9.154;2022-12-18T03:26:01;97642.19;;;-9.05;82.54
14689;BME280;7432;48.728;9.154;2022-12-18T03:28:31;97644.66;;;-9.02;82.01
14689;BME280;7432;48.728;9.154;2022-12-18T03:31:04;97641.41;;;-9.10;82.06
14689;BME280;7432;48.728;9.154;2022-12-18T03:33:38;97642.25;;;-9.13;81.84
14689;BME280;7432;48.728;9.154;2022-12-18T03:36:06;97641.31;;;-9.04;82.52
14689;BME280;7432;48.728;9.154;2022-12-18T03:38:32;97648.75;;;-8.98;82.37
14689;BME280;7432;48.728;9.154;2022-12-18T03:41:03;97612.34;;;-9.17;82.23
14689;BME280;7432;48.728;9.154;2022-12-18T03:43:41;97637.16;;;-9.00;82.83
14689;BME280;7432;48.728;9.154;2022-12-18T03:46:17;97632.28;;;-9.13;82.62
14689;BME280;7432;48.728;9.154;2022-12-18T03:48:48;97634.72;;;-9.08;83.43
14689;BME280;7432;48.728;9.154;2022-12-18T03:51:23;97634.00;;;-9.22;82.92
14689;BME280;7432;48.728;9.154;2022-12-18T03:53:55;97636.47;;;-9.16;82.59
14689;BME280;7432;48.728;9.154;2022-12-18T03:56:26;97641.50;;;-9.21;82.68
14689;BME280;7432;48.728;9.154;2022-12-18T03:58:55;97644.84;;;-9.25;82.30
14689;BME280;7432;48.728;9.154;2022-12-18T04:01:29;97633.13;;;-9.15;82.35
14689;BME280;7432;48.728;9.154;2022-12-18T04:03:58;97635.72;;;-9.24;82.68
14689;BME280;7432;48.728;9.154;2022-12-18T04:06:27;97633.25;;;-9.30;82.37
14689;BME280;7432;48.728;9.154;2022-12-18T04:08:54;97640.72;;;-9.27;82.47
14689;BME280;7432;48.728;9.154;2022-12-18T04:11:21;97636.56;;;-9.27;82.73
14689;BME280;7432;48.728;9.154;2022-12-18T04:13:47;97640.00;;;-9.43;82.52
14689;BME280;7432;48.728;9.154;2022-12-18T04:16:13;97629.22;;;-9.46;82.01
14689;BME280;7432;48.728;9.154;2022-12-18T04:18:41;97638.31;;;-9.41;81.85
14689;BME280;7432;48.728;9.154;2022-12-18T04:21:08;97639.19;;;-9.43;81.11
14689;BME280;7432;48.728;9.154;2022-12-18T04:23:34;97643.41;;;-9.51;81.29
14689;BME280;7432;48.728;9.154;2022-12-18T04:26:00;97640.13;;;-9.58;80.67
14689;BME280;7432;48.728;9.154;2022-12-18T04:28:27;97639.25;;;-9.52;80.72
14689;BME280;7432;48.728;9.154;2022-12-18T04:30:53;97645.16;;;-9.66;80.99
14689;BME280;7432;48.728;9.154;2022-12-18T04:33:19;97652.66;;;-9.69;80.86
14689;BME280;7432;48.728;9.154;2022-12-18T04:35:47;97656.00;;;-9.74;81.21
14689;BME280;7432;48.728;9.154;2022-12-18T04:38:14;97661.00;;;-9.80;80.84
14689;BME280;7432;48.728;9.154;2022-12-18T04:40:40;97631.19;;;-9.86;80.64
14689;BME280;7432;48.728;9.154;2022-12-18T04:43:07;97658.44;;;-9.62;79.99
14689;BME280;7432;48.728;9.154;2022-12-18T04:45:33;97649.41;;;-9.78;79.74
14689;BME280;7432;48.728;9.154;2022-12-18T04:48:00;97647.75;;;-9.82;80.62
14689;BME280;7432;48.728;9.154;2022-12-18T04:50:27;97655.16;;;-9.75;80.31
14689;BME280;7432;48.728;9.154;2022-12-18T04:52:55;97637.75;;;-9.73;79.79
14689;BME280;7432;48.728;9.154;2022-12-18T04:55:25;97632.00;;;-9.89;80.52
14689;BME280;7432;48.728;9.154;2022-12-18T04:57:51;97629.53;;;-9.90;80.65
14689;BME280;7432;48.728;9.154;2022-12-18T05:00:18;97618.69;;;-9.83;80.56
14689;BME280;7432;48.728;9.154;2022-12-18T05:02:45;97609.59;;;-9.84;80.83
14689;BME280;7432;48.728;9.154;2022-12-18T05:05:11;97623.63;;;-9.77;80.23
14689;BME280;7432;48.728;9.154;2022-12-18T05:07:38;97626.19;;;-9.88;80.19
14689;BME280;7432;48.728;9.154;2022-12-18T05:10:06;97621.19;;;-9.85;80.90
14689;BME280;7432;48.728;9.154;2022-12-18T05:12:33;97617.03;;;-9.81;80.65
14689;BME280;7432;48.728;9.154;2022-12-18T05:15:19;97622.91;;;-9.94;81.57
14689;BME280;7432;48.728;9.154;2022-12-18T05:17:46;97633.63;;;-9.83;82.04
14689;BME280;7432;48.728;9.154;2022-12-18T05:20:12;97635.31;;;-9.85;82.24
14689;BME280;7432;48.728;9.154;2022-12-18T05:22:39;97639.50;;;-9.90;82.32
14689;BME280;7432;48.728;9.154;2022-12-18T05:25:07;97635.34;;;-9.87;82.98
14689;BME280;7432;48.728;9.154;2022-12-18T05:27:34;97641.13;;;-9.82;82.36
14689;BME280;7432;48.728;9.154;2022-12-18T05:30:00;97632.78;;;-9.81;82.03
14689;BME280;7432;48.728;9.154;2022-12-18T05:32:26;97643.56;;;-9.76;82.07
14689;BME280;7432;48.728;9.154;2022-12-18T05:34:53;97657.72;;;-9.82;81.53
14689;BME280;7432;48.728;9.154;2022-12-18T05:37:19;97657.69;;;-9.79;80.80
14689;BME280;7432;48.728;9.154;2022-12-18T05:39:46;97661.09;;;-9.89;80.11
14689;BME280;7432;48.728;9.154;2022-12-18T05:42:13;97658.63;;;-9.97;79.25
14689;BME280;7432;48.728;9.154;2022-12-18T05:44:40;97662.00;;;-10.07;79.52
14689;BME280;7432;48.728;9.154;2022-12-18T05:47:06;97662.09;;;-10.17;79.13
14689;BME280;7432;48.728;9.154;2022-12-18T05:49:33;97667.91;;;-10.21;79.63
14689;BME280;7432;48.728;9.154;2022-12-18T05:51:59;97660.41;;;-10.15;79.36
14689;BME280;7432;48.728;9.154;2022-12-18T05:54:26;97648.81;;;-10.19;79.34
14689;BME280;7432;48.728;9.154;2022-12-18T05:56:53;97648.03;;;-10.29;79.16
14689;BME280;7432;48.728;9.154;2022-12-18T05:59:21;97650.56;;;-10.37;80.08
14689;BME280;7432;48.728;9.154;2022-12-18T06:01:47;97643.06;;;-10.35;79.78
14689;BME280;7432;48.728;9.154;2022-12-18T06:04:14;97652.22;;;-10.36;78.73
14689;BME280;7432;48.728;9.154;2022-12-18T06:06:40;97653.88;;;-10.36;79.49
14689;BME280;7432;48.728;9.154;2022-12-18T06:09:07;97654.72;;;-10.46;79.38
14689;BME280;7432;48.728;9.154;2022-12-18T06:11:35;97662.22;;;-10.51;79.67
14689;BME280;7432;48.728;9.154;2022-12-18T06:14:03;97664.69;;;-10.54;79.55
14689;BME280;7432;48.728;9.154;2022-12-18T06:16:32;97664.72;;;-10.49;79.47
14689;BME280;7432;48.728;9.154;2022-12-18T06:18:59;97668.03;;;-10.53;78.92
14689;BME280;7432;48.728;9.154;2022-12-18T06:21:26;97662.22;;;-10.60;79.58
14689;BME280;7432;48.728;9.154;2022-12-18T06:23:52;97669.66;;;-10.51;79.55
14689;BME280;7432;48.728;9.154;2022-12-18T06:26:19;97664.72;;;-10.52;79.82
14689;BME280;7432;48.728;9.154;2022-12-18T06:28:45;97670.50;;;-10.53;79.88
14689;BME280;7432;48.728;9.154;2022-12-18T06:31:12;97673.00;;;-10.53;79.72
14689;BME280;7432;48.728;9.154;2022-12-18T06:33:39;97674.66;;;-10.49;79.04
14689;BME280;7432;48.728;9.154;2022-12-18T06:36:08;97684.63;;;-10.60;78.91
14689;BME280;7432;48.728;9.154;2022-12-18T06:38:38;97675.50;;;-10.59;79.09
14689;BME280;7432;48.728;9.154;2022-12-18T06:41:06;97681.31;;;-10.59;78.94
14689;BME280;7432;48.728;9.154;2022-12-18T06:43:33;97682.09;;;-10.48;78.79
14689;BME280;7432;48.728;9.154;2022-12-18T06:46:00;97678.78;;;-10.48;78.81
14689;BME280;7432;48.728;9.154;2022-12-18T06:48:27;97679.59;;;-10.43;78.55
14689;BME280;7432;48.728;9.154;2022-12-18T06:50:55;97678.81;;;-10.50;79.39
14689;BME280;7432;48.728;9.154;2022-12-18T06:53:21;97673.00;;;-10.53;78.83
14689;BME280;7432;48.728;9.154;2022-12-18T06:55:48;97682.94;;;-10.56;78.77
14689;BME280;7432;48.728;9.154;2022-12-18T06:58:14;97675.53;;;-10.64;78.76
14689;BME280;7432;48.728;9.154;2022-12-18T07:00:41;97676.34;;;-10.60;78.49
14689;BME280;7432;48.728;9.154;2022-12-18T07:03:08;97682.13;;;-10.61;78.46
14689;BME280;7432;48.728;9.154;2022-12-18T07:05:34;97683.78;;;-10.59;77.67
14689;BME280;7432;48.728;9.154;2022-12-18T07:08:06;97703.72;;;-10.71;77.95
14689;BME280;7432;48.728;9.154;2022-12-18T07:10:33;97699.56;;;-10.64;78.71
14689;BME280;7432;48.728;9.154;2022-12-18T07:12:59;97703.72;;;-10.66;79.05
14689;BME280;7432;48.728;9.154;2022-12-18T07:15:26;97704.53;;;-10.67;79.25
14689;BME280;7432;48.728;9.154;2022-12-18T07:17:52;97710.34;;;-10.55;78.45
14689;BME280;7432;48.728;9.154;2022-12-18T07:20:18;97699.53;;;-10.51;78.74
14689;BME280;7432;48.728;9.154;2022-12-18T07:22:45;97707.78;;;-10.43;78.84
14689;BME280;7432;48.728;9.154;2022-12-18T07:25:12;97713.56;;;-10.35;78.65
14689;BME280;7432;48.728;9.154;2022-12-18T07:27:39;97714.38;;;-10.20;78.36
14689;BME280;7432;48.728;9.154;2022-12-18T07:30:06;97708.50;;;-10.13;78.77
14689;BME280;7432;48.728;9.154;2022-12-18T07:32:33;97706.81;;;-10.07;78.63
14689;BME280;7432;48.728;9.154;2022-12-18T07:35:00;97712.53;;;-9.91;79.25
14689;BME280;7432;48.728;9.154;2022-12-18T07:37:26;97709.19;;;-9.81;79.57
14689;BME280;7432;48.728;9.154;2022-12-18T07:39:53;97709.13;;;-9.69;79.39
14689;BME280;7432;48.728;9.154;2022-12-18T07:42:21;97712.44;;;-9.67;79.00
14689;BME280;7432;48.728;9.154;2022-12-18T07:45:00;97714.00;;;-9.52;78.84
14689;BME280;7432;48.728;9.154;2022-12-18T07:47:27;97710.66;;;-9.47;78.74
14689;BME280;7432;48.728;9.154;2022-12-18T07:49:54;97710.63;;;-9.44;78.40
14689;BME280;7432;48.728;9.154;2022-12-18T07:52:21;97715.56;;;-9.35;78.85
14689;BME280;7432;48.728;9.154;2022-12-18T07:54:47;97713.09;;;-9.39;77.99
14689;BME280;7432;48.728;9.154;2022-12-18T07:57:14;97724.47;;;-9.02;78.11
14689;BME280;7432;48.728;9.154;2022-12-18T07:59:42;97719.88;;;-8.55;77.07
14689;BME280;7432;48.728;9.154;2022-12-18T08:02:08;97720.97;;;-8.04;76.01
14689;BME280;7432;48.728;9.154;2022-12-18T08:04:34;97721.44;;;-7.15;74.19
14689;BME280;7432;48.728;9.154;2022-12-18T08:07:01;97711.09;;;-5.61;71.36
14689;BME280;7432;48.728;9.154;2022-12-18T08:09:27;97721.72;;;-4.78;67.13
14689;BME280;7432;48.728;9.154;2022-12-18T08:11:54;97718.56;;;-5.21;65.77
14689;BME280;7432;48.728;9.154;2022-12-18T08:14:20;97725.41;;;-5.67;66.72
14689;BME280;7432;48.728;9.154;2022-12-18T08:16:48;97726.69;;;-6.29;69.26
14689;BME280;7432;48.728;9.154;2022-12-18T08:19:14;97725.78;;;-6.73;71.07
14689;BME280;7432;48.728;9.154;2022-12-18T08:21:41;97721.09;;;-6.92;72.20
14689;BME280;7432;48.728;9.154;2022-12-18T08:24:09;97726.31;;;-7.06;72.75
14689;BME280;7432;48.728;9.154;2022-12-18T08:26:35;97726.47;;;-7.16;74.31
14689;BME280;7432;48.728;9.154;2022-12-18T08:29:01;97722.34;;;-7.21;74.79
14689;BME280;7432;48.728;9.154;2022-12-18T08:31:29;97722.38;;;-7.22;77.22
14689;BME280;7432;48.728;9.154;2022-12-18T08:33:57;97718.97;;;-7.18;77.12
14689;BME280;7432;48.728;9.154;2022-12-18T08:36:24;97723.88;;;-7.10;78.61
14689;BME280;7432;48.728;9.154;2022-12-18T08:38:51;97711.06;;;-6.94;78.50
14689;BME280;7432;48.728;9.154;2022-12-18T08:41:19;97693.69;;;-7.01;79.75
14689;BME280;7432;48.728;9.154;2022-12-18T08:43:46;97715.75;;;-6.74;80.35
14689;BME280;7432;48.728;9.154;2022-12-18T08:46:33;97720.47;;;-6.56;80.84
14689;BME280;7432;48.728;9.154;2022-12-18T08:49:02;97721.22;;;-6.51;80.92
14689;BME280;7432;48.728;9.154;2022-12-18T08:51:29;97721.91;;;-6.44;81.40
14689;BME280;7432;48.728;9.154;2022-12-18T08:53:56;97720.88;;;-6.31;81.34
14689;BME280;7432;48.728;9.154;2022-12-18T08:56:22;97720.56;;;-6.16;81.49
14689;BME280;7432;48.728;9.154;2022-12-18T08:58:51;97721.47;;;-6.19;81.43
14689;BME280;7432;48.728;9.154;2022-12-18T09:01:17;97725.31;;;-6.03;81.50
14689;BME280;7432;48.728;9.154;2022-12-18T09:03:44;97707.25;;;-6.18;82.78
14689;BME280;7432;48.728;9.154;2022-12-18T09:06:15;97711.06;;;-5.99;82.80
14689;BME280;7432;48.728;9.154;2022-12-18T09:08:42;97701.59;;;-5.86;83.29
14689;BME280;7432;48.728;9.154;2022-12-18T09:11:12;97698.19;;;-5.84;83.33
14689;BME280;7432;48.728;9.154;2022-12-18T09:13:39;97692.19;;;-5.77;83.91
14689;BME280;7432;48.728;9.154;2022-12-18T09:16:06;97704.50;;;-5.66;83.49
14689;BME280;7432;48.728;9.154;2022-12-18T09:18:32;97696.78;;;-5.57;82.34
14689;BME280;7432;48.728;9.154;2022-12-18T09:20:59;97703.34;;;-5.52;82.36
14689;BME280;7432;48.728;9.154;2022-12-18T09:23:26;97695.91;;;-5.55;82.15
14689;BME280;7432;48.728;9.154;2022-12-18T09:25:58;97692.81;;;-5.67;82.66
14689;BME280;7432;48.728;9.154;2022-12-18T09:28:25;97689.41;;;-5.63;82.72
14689;BME280;7432;48.728;9.154;2022-12-18T09:30:52;97679.13;;;-5.53;82.55
14689;BME280;7432;48.728;9.154;2022-12-18T09:33:19;97674.06;;;-5.51;82.97
14689;BME280;7432;48.728;9.154;2022-12-18T09:35:46;97681.50;;;-5.47;83.89
14689;BME280;7432;48.728;9.154;2022-12-18T09:38:15;97684.03;;;-5.48;83.43
14689;BME280;7432;48.728;9.154;2022-12-18T09:40:46;97690.72;;;-5.49;83.63
14689;BME280;7432;48.728;9.154;2022-12-18T09:43:17;97692.88;;;-5.32;83.80
14689;BME280;7432;48.728;9.154;2022-12-18T09:45:46;97694.56;;;-5.32;83.31
14689;BME280;7432;48.728;9.154;2022-12-18T09:48:18;97685.38;;;-5.33;83.66
14689;BME280;7432;48.728;9.154;2022-12-18T09:50:46;97688.56;;;-5.27;84.35
14689;BME280;7432;48.728;9.154;2022-12-18T09:53:16;97684.03;;;-5.48;83.83
14689;BME280;7432;48.728;9.154;2022-12-18T09:55:48;97684.88;;;-5.48;83.83
14689;BME280;7432;48.728;9.154;2022-12-18T09:58:19;97675.44;;;-5.38;84.42
14689;BME280;7432;48.728;9.154;2022-12-18T10:00:51;97675.91;;;-5.58;84.72
14689;BME280;7432;48.728;9.154;2022-12-18T10:03:17;97668.44;;;-5.61;84.81
14689;BME280;7432;48.728;9.154;2022-12-18T10:05:51;97673.22;;;-5.52;85.74
14689;BME280;7432;48.728;9.154;2022-12-18T10:08:27;97684.50;;;-5.31;85.57
14689;BME280;7432;48.728;9.154;2022-12-18T10:11:02;97680.38;;;-5.33;84.96
14689;BME280;7432;48.728;9.154;2022-12-18T10:13:32;97685.97;;;-5.22;84.66
14689;BME280;7432;48.728;9.154;2022-12-18T10:16:09;97683.22;;;-5.13;84.84
14689;BME280;7432;48.728;9.154;2022-12-18T10:18:48;97689.00;;;-5.10;85.19
14689;BME280;7432;48.728;9.154;2022-12-18T10:21:20;97686.38;;;-5.04;84.82
14689;BME280;7432;48.728;9.154;2022-12-18T10:23:53;97692.72;;;-4.89;84.40
14689;BME280;7432;48.728;9.154;2022-12-18T10:26:24;97688.63;;;-4.93;84.39
14689;BME280;7432;48.728;9.154;2022-12-18T10:28:51;97696.84;;;-4.88;84.64
14689;BME280;7432;48.728;9.154;2022-12-18T10:31:19;97688.34;;;-4.83;84.57
14689;BME280;7432;48.728;9.154;2022-12-18T10:33:46;97684.78;;;-4.74;85.80
14689;BME280;7432;48.728;9.154;2022-12-18T10:36:13;97678.75;;;-4.67;85.58
14689;BME280;7432;48.728;9.154;2022-12-18T10:38:39;97689.56;;;-4.63;85.08
14689;BME280;7432;48.728;9.154;2022-12-18T10:41:25;97686.19;;;-4.62;86.38
14689;BME280;7432;48.728;9.154;2022-12-18T10:44:11;97690.03;;;-4.49;86.39
14689;BME280;7432;48.728;9.154;2022-12-18T10:46:38;97687.59;;;-4.52;86.01
14689;BME280;7432;48.728;9.154;2022-12-18T10:49:05;97687.91;;;-4.32;86.32
14689;BME280;7432;48.728;9.154;2022-12-18T10:51:33;97692.66;;;-4.22;86.08
14689;BME280;7432;48.728;9.154;2022-12-18T10:54:02;97682.22;;;-4.08;86.19
14689;BME280;7432;48.728;9.154;2022-12-18T10:56:33;97691.13;;;-3.96;86.51
14689;BME280;7432;48.728;9.154;2022-12-18T10:59:02;97689.16;;;-3.87;85.54
14689;BME280;7432;48.728;9.154;2022-12-18T11:01:45;97693.94;;;-3.78;86.14
14689;BME280;7432;48.728;9.154;2022-12-18T11:04:16;97677.75;;;-3.69;85.13
14689;BME280;7432;48.728;9.154;2022-12-18T11:06:54;97684.09;;;-3.58;83.82
14689;BME280;7432;48.728;9.154;2022-12-18T11:09:22;97679.72;;;-3.51;83.11
14689;BME280;7432;48.728;9.154;2022-12-18T11:11:51;97680.88;;;-3.61;82.52
14689;BME280;7432;48.728;9.154;2022-12-18T11:14:22;97671.72;;;-3.64;83.39
14689;BME280;7432;48.728;9.154;2022-12-18T11:16:50;97664.03;;;-3.59;83.13
14689;BME280;7432;48.728;9.154;2022-12-18T11:19:32;97667.81;;;-3.46;82.58
14689;BME280;7432;48.728;9.154;2022-12-18T11:21:59;97668.34;;;-3.35;82.68
14689;BME280;7432;48.728;9.154;2022-12-18T11:24:29;97664.66;;;-3.25;82.22
14689;BME280;7432;48.728;9.154;2022-12-18T11:26:59;97652.88;;;-3.24;81.99
14689;BME280;7432;48.728;9.154;2022-12-18T11:29:34;97657.91;;;-3.23;82.28
14689;BME280;7432;48.728;9.154;2022-12-18T11:32:23;97657.25;;;-3.29;82.80
14689;BME280;7432;48.728;9.154;2022-12-18T11:34:53;97661.28;;;-3.24;82.90
14689;BME280;7432;48.728;9.154;2022-12-18T11:37:23;97652.97;;;-3.27;82.80
14689;BME280;7432;48.728;9.154;2022-12-18T11:39:54;97649.63;;;-3.28;82.89
14689;BME280;7432;48.728;9.154;2022-12-18T11:42:27;97657.31;;;-3.31;82.75
14689;BME280;7432;48.728;9.154;2022-12-18T11:44:58;97648.56;;;-3.47;84.18
14689;BME280;7432;48.728;9.154;2022-12-18T11:47:30;97643.25;;;-3.38;83.94
14689;BME280;7432;48.728;9.154;2022-12-18T11:50:01;97636.25;;;-3.28;83.59
14689;BME280;7432;48.728;9.154;2022-12-18T11:52:33;97648.34;;;-3.13;83.89
14689;BME280;7432;48.728;9.154;2022-12-18T11:55:11;97654.63;;;-3.26;82.41
14689;BME280;7432;48.728;9.154;2022-12-18T11:57:47;97645.44;;;-3.27;80.91
14689;BME280;7432;48.728;9.154;2022-12-18T12:00:18;97643.72;;;-3.53;81.06
14689;BME280;7432;48.728;9.154;2022-12-18T12:03:03;97630.22;;;-3.50;81.73
14689;BME280;7432;48.728;9.154;2022-12-18T12:05:45;97629.97;;;-3.43;82.24
14689;BME280;7432;48.728;9.154;2022-12-18T12:08:24;97633.06;;;-3.33;83.04
14689;BME280;7432;48.728;9.154;2022-12-18T12:11:02;97624.03;;;-3.40;83.59
14689;BME280;7432;48.728;9.154;2022-12-18T12:13:43;97627.22;;;-3.35;83.47
14689;BME280;7432;48.728;9.154;2022-12-18T12:16:17;97617.03;;;-3.31;82.96
14689;BME280;7432;48.728;9.154;2022-12-18T12:19:04;97617.50;;;-3.20;83.56
14689;BME280;7432;48.728;9.154;2022-12-18T12:21:39;97626.31;;;-3.07;83.45
14689;BME280;7432;48.728;9.154;2022-12-18T12:24:18;97615.34;;;-3.06;83.12
14689;BME280;7432;48.728;9.154;2022-12-18T12:26:57;97616.75;;;-2.97;82.87
14689;BME280;7432;48.728;9.154;2022-12-18T12:29:37;97616.72;;;-3.22;82.93
14689;BME280;7432;48.728;9.154;2022-12-18T12:32:13;97620.81;;;-3.18;83.46
14689;BME280;7432;48.728;9.154;2022-12-18T12:34:48;97618.09;;;-3.12;82.82
14689;BME280;7432;48.728;9.154;2022-12-18T12:37:25;97617.69;;;-3.00;82.86
14689;BME280;7432;48.728;9.154;2022-12-18T12:39:58;97623.59;;;-3.01;80.99
14689;BME280;7432;48.728;9.154;2022-12-18T12:42:32;97631.63;;;-3.16;80.75
14689;BME280;7432;48.728;9.154;2022-12-18T12:45:24;97629.13;;;-3.16;81.04
14689;BME280;7432;48.728;9.154;2022-12-18T12:47:54;97621.56;;;-3.16;80.92
14689;BME280;7432;48.728;9.154;2022-12-18T12:50:22;97629.06;;;-3.14;81.24
14689;BME280;7432;48.728;9.154;2022-12-18T12:52:52;97636.88;;;-3.22;81.30
14689;BME280;7432;48.728;9.154;2022-12-18T12:55:21;97642.72;;;-3.21;80.50
14689;BME280;7432;48.728;9.154;2022-12-18T12:57:59;97642.22;;;-3.31;81.46
14689;BME280;7432;48.728;9.154;2022-12-18T13:00:30;97645.00;;;-3.14;81.60
14689;BME280;7432;48.728;9.154;2022-12-18T13:03:03;97642.03;;;-3.00;80.99
14689;BME280;7432;48.728;9.154;2022-12-18T13:05:38;97637.56;;;-2.92;81.14
14689;BME280;7432;48.728;9.154;2022-12-18T13:08:08;97638.41;;;-2.91;81.30
14689;BME280;7432;48.728;9.154;2022-12-18T13:10:36;97644.44;;;-2.95;80.54
14689;BME280;7432;48.728;9.154;2022-12-18T13:13:06;97651.06;;;-2.93;79.51
14689;BME280;7432;48.728;9.154;2022-12-18T13:15:43;97651.25;;;-2.99;79.29
14689;BME280;7432;48.728;9.154;2022-12-18T13:18:19;97654.09;;;-2.83;79.15
14689;BME280;7432;48.728;9.154;2022-12-18T13:20:47;97652.31;;;-2.80;79.32
14689;BME280;7432;48.728;9.154;2022-12-18T13:23:30;97648.75;;;-2.74;79.35